createdAt,value
2022-10-19T00:01:15.521Z,4.00
2022-10-19T00:03:43.406Z,3.00
2022-10-19T00:06:12.060Z,4.00
2022-10-19T00:08:39.415Z,4.33
2022-10-19T00:16:01.685Z,4.50
2022-10-19T00:18:28.629Z,5.00
2022-10-19T00:21:05.848Z,4.00
2022-10-19T00:23:33.309Z,4.00
2022-10-19T00:26:00.835Z,4.00
2022-10-19T00:28:28.471Z,5.00
2022-10-19T00:30:55.649Z,5.00
2022-10-19T00:33:23.309Z,5.00
2022-10-19T00:38:19.254Z,4.00
2022-10-19T00:43:15.392Z,4.00
2022-10-19T00:45:42.340Z,3.00
2022-10-19T00:50:37.050Z,5.00
2022-10-19T00:53:04.096Z,3.50
2022-10-19T00:55:31.655Z,4.00
2022-10-19T00:57:58.914Z,5.00
2022-10-19T01:00:25.960Z,4.00
2022-10-19T01:02:53.213Z,5.00
2022-10-19T01:05:20.291Z,4.50
2022-10-19T01:07:47.103Z,4.00
2022-10-19T01:10:14.391Z,5.00
2022-10-19T01:13:06.803Z,5.00
2022-10-19T01:15:57.546Z,5.00
2022-10-19T01:18:32.740Z,4.00
2022-10-19T01:21:29.224Z,5.00
2022-10-19T01:24:11.699Z,5.00
2022-10-19T01:26:53.994Z,4.00
2022-10-19T01:29:58.524Z,5.00
2022-10-19T01:32:28.338Z,4.00
2022-10-19T01:35:27.642Z,4.50
2022-10-19T01:38:17.935Z,3.00
2022-10-19T01:40:55.220Z,4.50
2022-10-19T01:43:34.998Z,5.00
2022-10-19T01:46:41.443Z,4.50
2022-10-19T01:49:41.256Z,5.00
2022-10-19T01:52:10.765Z,4.00
2022-10-19T01:57:12.541Z,5.00
2022-10-19T02:02:09.400Z,4.00
2022-10-19T02:04:37.721Z,4.00
2022-10-19T02:07:07.181Z,4.50
2022-10-19T02:12:03.942Z,5.00
2022-10-19T02:14:36.157Z,3.00
2022-10-19T02:19:32.560Z,5.00
2022-10-19T02:21:59.813Z,4.00
2022-10-19T02:24:26.963Z,4.50
2022-10-19T02:26:54.526Z,5.00
2022-10-19T02:31:48.515Z,5.00
2022-10-19T02:34:15.462Z,5.00
2022-10-19T02:36:42.818Z,5.00
2022-10-19T02:39:10.587Z,7.00
2022-10-19T02:41:57.991Z,4.50
2022-10-19T02:46:57.771Z,6.00
2022-10-19T02:49:25.298Z,4.50
2022-10-19T02:54:25.535Z,5.00
2022-10-19T02:56:52.585Z,5.00
2022-10-19T02:59:19.733Z,4.00
2022-10-19T03:01:46.686Z,5.00
2022-10-19T03:06:40.368Z,4.00
2022-10-19T03:11:34.158Z,6.00
2022-10-19T03:16:28.049Z,6.00
2022-10-19T03:18:55.200Z,6.00
2022-10-19T03:21:22.190Z,6.00
2022-10-19T03:23:49.101Z,6.50
2022-10-19T03:26:17.574Z,6.00
2022-10-19T03:28:44.536Z,6.00
2022-10-19T03:31:11.776Z,6.00
2022-10-19T03:38:53.197Z,7.00
2022-10-19T03:41:21.932Z,6.00
2022-10-19T03:43:48.881Z,6.50
2022-10-19T03:46:16.381Z,6.00
2022-10-19T03:51:16.417Z,7.00
2022-10-19T03:53:43.978Z,7.00
2022-10-19T03:56:11.994Z,6.00
2022-10-19T03:58:40.431Z,7.00
2022-10-19T04:01:13.263Z,7.00
2022-10-19T04:06:18.352Z,7.00
2022-10-19T04:08:49.726Z,7.00
2022-10-19T04:11:18.606Z,5.00
2022-10-19T04:13:50.877Z,6.00
2022-10-19T04:16:19.369Z,6.00
2022-10-19T04:18:46.613Z,6.00
2022-10-19T04:26:20.555Z,6.00
2022-10-19T04:28:47.643Z,7.00
2022-10-19T04:31:14.957Z,9.00
2022-10-19T04:33:42.030Z,7.00
2022-10-19T04:36:10.899Z,7.00
2022-10-19T04:38:38.767Z,6.00
2022-10-19T04:41:13.323Z,6.00
2022-10-19T04:43:40.440Z,9.00
2022-10-19T04:46:12.673Z,8.00
2022-10-19T04:48:40.372Z,8.00
2022-10-19T04:53:34.570Z,3.50
2022-10-19T04:58:31.328Z,6.00
2022-10-19T05:00:58.803Z,7.00
2022-10-19T05:05:52.473Z,8.00
2022-10-19T05:08:19.318Z,8.00
2022-10-19T05:10:47.719Z,7.50
2022-10-19T05:13:14.769Z,7.00
2022-10-19T05:15:41.997Z,7.00
2022-10-19T05:18:08.845Z,7.00
2022-10-19T05:20:35.785Z,9.00
2022-10-19T05:23:06.314Z,8.00
2022-10-19T05:25:34.305Z,7.00
2022-10-19T05:28:01.230Z,7.50
2022-10-19T05:32:55.022Z,7.50
2022-10-19T05:35:22.672Z,8.00
2022-10-19T05:37:54.954Z,9.00
2022-10-19T05:40:22.102Z,9.00
2022-10-19T05:42:48.945Z,7.00
2022-10-19T05:47:42.735Z,7.00
2022-10-19T05:50:09.582Z,9.00
2022-10-19T05:52:36.628Z,8.00
2022-10-19T05:55:04.000Z,8.00
2022-10-19T05:57:32.601Z,7.00
2022-10-19T05:59:59.718Z,8.50
2022-10-19T06:02:26.663Z,9.00
2022-10-19T06:07:20.348Z,7.00
2022-10-19T06:09:47.602Z,9.00
2022-10-19T06:12:15.838Z,10.00
2022-10-19T06:14:43.546Z,9.00
2022-10-19T06:17:10.897Z,7.50
2022-10-19T06:19:37.847Z,6.50
2022-10-19T06:22:04.685Z,9.00
2022-10-19T06:24:31.564Z,7.00
2022-10-19T06:26:58.579Z,8.00
2022-10-19T06:31:53.858Z,11.00
2022-10-19T06:34:20.698Z,12.50
2022-10-19T06:36:47.591Z,9.50
2022-10-19T06:39:14.329Z,14.00
2022-10-19T06:41:41.377Z,14.00
2022-10-19T06:44:08.532Z,15.00
2022-10-19T06:46:35.399Z,15.00
2022-10-19T06:49:02.323Z,14.00
2022-10-19T06:51:31.487Z,12.00
2022-10-19T06:56:26.331Z,16.00
2022-10-19T07:01:21.189Z,18.00
2022-10-19T07:03:50.748Z,17.00
2022-10-19T07:08:44.946Z,17.50
2022-10-19T07:11:15.583Z,18.00
2022-10-19T07:13:42.526Z,21.00
2022-10-19T07:16:16.010Z,16.00
2022-10-19T07:21:15.854Z,20.00
2022-10-19T07:23:44.337Z,21.00
2022-10-19T07:26:15.365Z,18.50
2022-10-19T07:28:44.685Z,20.00
2022-10-19T07:33:40.003Z,18.50
2022-10-19T07:38:35.329Z,20.50
2022-10-19T07:41:09.044Z,18.00
2022-10-19T07:43:35.982Z,18.50
2022-10-19T07:46:05.791Z,15.50
2022-10-19T07:48:33.872Z,21.00
2022-10-19T07:58:22.401Z,20.00
2022-10-19T08:00:49.342Z,20.00
2022-10-19T08:06:05.988Z,18.00
2022-10-19T08:08:33.430Z,20.00
2022-10-19T08:16:05.012Z,20.50
2022-10-19T08:21:03.991Z,18.50
2022-10-19T08:23:30.835Z,18.00
2022-10-19T08:25:59.225Z,21.00
2022-10-19T08:28:26.160Z,19.00
2022-10-19T08:30:57.713Z,19.50
2022-10-19T08:35:53.616Z,14.00
2022-10-19T08:40:47.243Z,19.00
2022-10-19T08:43:36.509Z,18.00
2022-10-19T08:46:17.904Z,16.50
2022-10-19T08:48:46.166Z,21.00
2022-10-19T08:53:53.267Z,20.50
2022-10-19T08:56:49.221Z,20.00
2022-10-19T09:02:00.920Z,21.00
2022-10-19T09:07:18.961Z,17.00
2022-10-19T09:10:31.886Z,21.00
2022-10-19T09:13:02.726Z,18.00
2022-10-19T09:15:39.295Z,17.00
2022-10-19T09:20:49.150Z,19.50
2022-10-19T09:23:57.781Z,19.50
2022-10-19T09:26:30.770Z,18.00
2022-10-19T09:31:40.523Z,19.00
2022-10-19T09:34:20.968Z,18.00
2022-10-19T09:41:57.399Z,16.00
2022-10-19T09:44:25.062Z,19.00
2022-10-19T09:47:25.314Z,14.00
2022-10-19T09:52:32.697Z,20.00
2022-10-19T09:55:25.444Z,19.00
2022-10-19T09:58:00.788Z,20.00
2022-10-19T10:00:39.219Z,16.00
2022-10-19T10:03:07.261Z,20.00
2022-10-19T10:05:38.635Z,19.50
2022-10-19T10:10:43.600Z,16.00
2022-10-19T10:13:17.720Z,19.50
2022-10-19T10:15:48.733Z,18.00
2022-10-19T10:18:17.213Z,17.50
2022-10-19T10:20:59.751Z,15.00
2022-10-19T10:23:31.275Z,19.00
2022-10-19T10:28:27.939Z,17.00
2022-10-19T10:33:45.588Z,16.00
2022-10-19T10:36:13.243Z,16.50
2022-10-19T10:38:41.328Z,18.00
2022-10-19T10:41:17.379Z,15.50
2022-10-19T10:44:04.503Z,17.00
2022-10-19T10:46:39.427Z,16.00
2022-10-19T10:49:08.115Z,17.50
2022-10-19T10:51:40.899Z,17.00
2022-10-19T10:54:26.176Z,16.00
2022-10-19T10:57:16.414Z,12.00
2022-10-19T11:02:29.096Z,13.00
2022-10-19T11:05:11.611Z,13.00
2022-10-19T11:07:43.468Z,14.00
2022-10-19T11:10:35.590Z,18.00
2022-10-19T11:13:30.421Z,17.50
2022-10-19T11:15:59.600Z,15.00
2022-10-19T11:18:34.326Z,17.00
2022-10-19T11:23:37.541Z,15.50
2022-10-19T11:26:34.963Z,16.50
2022-10-19T11:29:39.016Z,14.00
2022-10-19T11:32:20.501Z,16.00
2022-10-19T11:38:17.558Z,15.00
2022-10-19T11:41:17.896Z,15.00
2022-10-19T11:43:55.088Z,13.00
2022-10-19T11:46:47.327Z,11.00
2022-10-19T11:49:23.388Z,12.00
2022-10-19T11:51:59.552Z,15.00
2022-10-19T11:54:58.750Z,14.00
2022-10-19T11:57:31.318Z,12.00
2022-10-19T12:00:15.427Z,13.00
2022-10-19T12:03:01.461Z,9.00
2022-10-19T12:05:48.791Z,14.00
2022-10-19T12:08:43.941Z,9.00
2022-10-19T12:11:33.988Z,8.00
2022-10-19T12:14:04.515Z,14.50
2022-10-19T12:21:46.450Z,2.00
2022-10-19T12:24:17.080Z,11.00
2022-10-19T12:26:45.686Z,12.00
2022-10-19T12:29:21.553Z,12.50
2022-10-19T12:31:50.822Z,15.00
2022-10-19T12:34:26.879Z,12.50
2022-10-19T12:37:03.790Z,11.50
2022-10-19T12:39:50.960Z,11.50
2022-10-19T12:42:22.532Z,11.00
2022-10-19T12:45:19.275Z,12.00
2022-10-19T12:48:08.444Z,11.00
2022-10-19T12:50:53.513Z,10.00
2022-10-19T12:53:35.616Z,12.00
2022-10-19T12:56:07.272Z,12.00
2022-10-19T13:01:05.730Z,9.50
2022-10-19T13:06:12.297Z,12.00
2022-10-19T13:11:16.798Z,13.00
2022-10-19T13:14:04.744Z,11.00
